Main page
METAR-TAF:

METAR-TAF

Airports :

King Khalid International Airport

Riyadh, Saudi Arabia

latitude: 24-56N, longitude: 046-43E, elevation: 614 m

Current weather observation

The report was made 16 minutes ago, at 18:00 UTC
Wind 2 kt from the Southeast
Temperature 25°C
Humidity 57%
Pressure 1017 hPa
Visibility 10 km or more
no clouds below 1500 m and no cumulonimbus

METAR: OERK 201800Z 13002KT CAVOK 25/16 Q1017 NOSIG

Time: 21:16 (18:16 UTC)

Forecast

The report was made 1 hour and 16 minutes ago, at 17:00 UTC
Forecast valid from 20 at 18 UTC to 21 at 24 UTC
Wind 10 kt from the South/Southeast with gusts up to 20 kt
Visibility: 7000 m
Scattered clouds at a height of 4000 ft
Scattered clouds at a height of 10000 ft
Temporary
from 20 at 18 UTC to 21 at 02 UTC
Visibility: 3000 m
Few clouds at a height of 3000 ft, Cumulonimbus.
Broken clouds at a height of 4000 ft
Blowing dust, thunderstorm, rain

TAF: OERK 201700Z 2018/2124 16010G20KT 7000 SCT040 SCT100 TEMPO 2018/2102 3000 BLDU TSRA FEW030CB BKN040

Weather observations and forecasts of more than 4000 airports (METAR and TAF reports).

The available stations are represented by yellow and red dots on the map.

Hover mouse over dot to see the name of the station.

Then click to see weather observations and forecasts.

To change the map : click on the green buttons with a black cross to zoom in, on the green button with a dash to zoom out, or on the green arrows for adjacent maps.


METAR-TAF: